Time;durP1;ratioP1;P1;durP2;ratioP2;P2;SDS_P1;SDS_P2;PMS_P1;PMS_P2;Temp;Humidity;BMP_temperature;BMP_pressure;BME280_temperature;BME280_humidity;BME280_pressure;Samples;Min_cycle;Max_cycle;Signal;HPM_P1;HPM_P2
2022/03/26 00:01:56;;;;;;;76.97;36.55;;;;;;;6.56;68.12;101281.78;5046928;28;20076;-69
2022/03/26 00:04:22;;;;;;;86.38;37.92;;;;;;;6.57;68.99;101280.06;5046946;28;20054;-71
2022/03/26 00:06:47;;;;;;;76.72;36.72;;;;;;;6.58;68.76;101282.59;5069525;28;20031;-71
2022/03/26 00:09:12;;;;;;;81.40;37.22;;;;;;;6.54;68.30;101270.59;5055916;28;20730;-70
2022/03/26 00:11:38;;;;;;;75.88;38.67;;;;;;;6.50;68.20;101274.22;5043607;28;20033;-70
2022/03/26 00:14:03;;;;;;;83.05;37.88;;;;;;;6.45;68.63;101276.97;5050536;28;20483;-69
2022/03/26 00:16:28;;;;;;;77.38;37.28;;;;;;;6.40;68.24;101271.06;5059254;28;20039;-68
2022/03/26 00:18:54;;;;;;;76.20;35.97;;;;;;;6.35;68.90;101270.38;5062181;28;20254;-69
2022/03/26 00:21:20;;;;;;;67.15;34.45;;;;;;;6.28;68.46;101264.50;5054062;28;20041;-70
2022/03/26 00:23:46;;;;;;;71.22;35.17;;;;;;;6.24;68.80;101272.47;5050567;28;20112;-69
2022/03/26 00:26:12;;;;;;;73.32;35.45;;;;;;;6.24;68.94;101269.88;5059239;28;20159;-69
2022/03/26 00:28:38;;;;;;;74.35;36.05;;;;;;;6.18;68.89;101281.31;5050659;28;20028;-69
2022/03/26 00:31:06;;;;;;;82.57;39.90;;;;;;;6.18;69.21;101277.88;5050765;28;20036;-70
2022/03/26 00:33:32;;;;;;;85.10;36.17;;;;;;;6.17;69.31;101270.97;5050533;28;20486;-71
2022/03/26 00:35:58;;;;;;;82.72;36.95;;;;;;;6.12;68.98;101272.84;5064634;28;20033;-72
2022/03/26 00:38:23;;;;;;;80.05;38.35;;;;;;;6.10;69.42;101267.72;5051227;28;20045;-72
2022/03/26 00:40:49;;;;;;;73.05;35.80;;;;;;;6.07;69.56;101279.06;5052574;28;20527;-72
2022/03/26 00:43:14;;;;;;;71.95;36.88;;;;;;;6.02;69.56;101267.97;5053597;28;20036;-71
2022/03/26 00:45:40;;;;;;;77.32;37.03;;;;;;;5.99;69.68;101272.41;5033477;28;20041;-71
2022/03/26 00:48:05;;;;;;;77.38;36.33;;;;;;;5.92;69.96;101269.16;5057887;28;20061;-71
2022/03/26 00:50:31;;;;;;;78.85;36.80;;;;;;;5.87;70.34;101264.97;5062360;28;20044;-71
2022/03/26 00:52:56;;;;;;;71.45;34.35;;;;;;;5.85;70.56;101275.41;5050996;28;20041;-71
2022/03/26 00:55:21;;;;;;;70.85;34.63;;;;;;;5.82;70.55;101280.72;5050532;28;20028;-72
2022/03/26 00:57:47;;;;;;;74.50;35.45;;;;;;;5.80;71.01;101279.94;5051397;28;20078;-71
2022/03/26 01:00:14;;;;;;;80.90;35.78;;;;;;;5.80;70.85;101272.13;5052241;28;20037;-71
2022/03/26 01:02:40;;;;;;;77.85;34.80;;;;;;;5.79;70.87;101275.63;5058792;28;20110;-70
2022/03/26 01:05:05;;;;;;;68.85;33.33;;;;;;;5.79;70.58;101278.22;5054469;28;20037;-68
2022/03/26 01:07:32;;;;;;;72.10;33.20;;;;;;;5.73;70.70;101273.19;5063320;28;20029;-70
2022/03/26 01:09:58;;;;;;;68.43;33.75;;;;;;;5.68;71.06;101269.91;5063888;28;20025;-70
2022/03/26 01:12:25;;;;;;;75.25;33.22;;;;;;;5.66;71.23;101269.94;5036039;28;20451;-71
2022/03/26 01:14:51;;;;;;;66.45;33.55;;;;;;;5.64;71.17;101270.91;5052682;28;20029;-70
2022/03/26 01:17:17;;;;;;;65.45;32.08;;;;;;;5.59;71.31;101265.81;5049677;28;20033;-70
2022/03/26 01:19:43;;;;;;;73.97;33.40;;;;;;;5.56;71.93;101271.97;5049946;28;20090;-71
2022/03/26 01:22:08;;;;;;;65.28;32.72;;;;;;;5.54;71.44;101271.16;5050936;28;20029;-70
2022/03/26 01:24:34;;;;;;;69.28;30.83;;;;;;;5.50;71.42;101271.31;5050246;28;20072;-70
2022/03/26 01:26:59;;;;;;;62.20;32.10;;;;;;;5.49;71.67;101269.63;5050374;28;20040;-71
2022/03/26 01:29:24;;;;;;;70.78;32.72;;;;;;;5.44;71.93;101274.94;5044010;28;20048;-69
2022/03/26 01:31:50;;;;;;;70.50;33.08;;;;;;;5.41;71.44;101267.22;5049866;28;20112;-71
2022/03/26 01:34:16;;;;;;;70.05;30.58;;;;;;;5.40;72.28;101272.47;5050864;28;20441;-71
2022/03/26 01:36:42;;;;;;;61.13;31.02;;;;;;;5.38;72.13;101264.72;5032249;28;20037;-71
2022/03/26 01:39:08;;;;;;;70.43;31.40;;;;;;;5.37;72.00;101268.19;5048846;28;20025;-70
2022/03/26 01:41:33;;;;;;;62.58;30.52;;;;;;;5.36;71.90;101265.66;5031614;28;20024;-72
2022/03/26 01:43:59;;;;;;;62.60;30.73;;;;;;;5.34;71.67;101268.31;5049406;28;20071;-72
2022/03/26 01:46:25;;;;;;;71.68;31.13;;;;;;;5.35;72.42;101264.81;5049887;28;20025;-70
2022/03/26 01:48:51;;;;;;;76.90;31.88;;;;;;;5.36;72.18;101258.72;5050683;28;20021;-71
2022/03/26 01:51:17;;;;;;;72.45;31.55;;;;;;;5.34;71.99;101261.38;5050368;28;20029;-72
2022/03/26 01:53:51;;;;;;;69.57;31.08;;;;;;;5.30;72.04;101258.88;5050221;28;20048;-72
2022/03/26 01:56:18;;;;;;;74.13;30.20;;;;;;;5.28;72.48;101263.28;5050329;28;20037;-72
2022/03/26 01:58:43;;;;;;;67.63;30.92;;;;;;;5.21;72.55;101266.97;5067074;28;20021;-73
2022/03/26 02:01:09;;;;;;;65.60;29.92;;;;;;;5.20;72.52;101270.47;5067001;28;20017;-70
2022/03/26 02:03:35;;;;;;;72.20;31.10;;;;;;;5.16;72.78;101264.50;5041891;28;20115;-72
2022/03/26 02:06:01;;;;;;;77.45;31.70;;;;;;;5.11;72.80;101261.16;5050074;28;20460;-72
2022/03/26 02:08:26;;;;;;;73.10;30.48;;;;;;;5.10;72.99;101257.72;5049135;28;20071;-73
2022/03/26 02:10:52;;;;;;;65.45;29.05;;;;;;;5.08;72.87;101261.28;5049399;28;20033;-71
2022/03/26 02:13:18;;;;;;;72.47;31.80;;;;;;;5.10;72.82;101259.47;5049096;28;20036;-71
2022/03/26 02:15:44;;;;;;;66.47;33.67;;;;;;;5.09;72.52;101253.41;5048252;28;20167;-70
2022/03/26 02:18:10;;;;;;;73.57;33.45;;;;;;;5.04;72.91;101255.31;5048314;28;20048;-70
2022/03/26 02:20:37;;;;;;;71.30;33.13;;;;;;;5.00;72.63;101251.06;5048246;28;20490;-70
2022/03/26 02:23:02;;;;;;;69.72;33.08;;;;;;;4.99;72.81;101253.72;5044726;28;20524;-70
2022/03/26 02:25:30;;;;;;;70.90;34.13;;;;;;;4.96;73.10;101246.00;5047464;28;20037;-72
2022/03/26 02:27:55;;;;;;;74.72;32.15;;;;;;;5.00;72.68;101240.66;5048436;28;20110;-72
2022/03/26 02:30:21;;;;;;;68.10;32.05;;;;;;;5.00;72.64;101237.22;5048452;28;20052;-72
2022/03/26 02:32:47;;;;;;;64.55;29.27;;;;;;;4.98;72.37;101239.88;5047907;28;20040;-70
2022/03/26 02:35:12;;;;;;;58.95;28.48;;;;;;;4.97;72.71;101245.97;5048201;28;20037;-71
2022/03/26 02:37:38;;;;;;;66.68;29.13;;;;;;;4.91;72.85;101256.53;5048307;28;20593;-71
2022/03/26 02:40:07;;;;;;;60.05;29.23;;;;;;;4.82;73.48;101254.19;5048639;28;20017;-71
2022/03/26 02:42:33;;;;;;;60.38;29.83;;;;;;;4.76;73.41;101259.56;5047982;28;20445;-73
2022/03/26 02:44:59;;;;;;;66.65;30.95;;;;;;;4.69;73.64;101253.66;5048262;28;20083;-71
2022/03/26 02:47:24;;;;;;;68.38;30.08;;;;;;;4.69;74.01;101252.81;5048554;28;20126;-69
2022/03/26 02:49:50;;;;;;;66.38;29.52;;;;;;;4.75;74.13;101243.13;5040178;28;20063;-70
2022/03/26 02:52:15;;;;;;;65.47;30.73;;;;;;;4.74;73.78;101245.75;5056130;28;20032;-71
2022/03/26 02:54:41;;;;;;;61.22;27.52;;;;;;;4.75;73.75;101253.53;5052617;28;20043;-70
2022/03/26 02:57:06;;;;;;;59.17;28.25;;;;;;;4.77;73.72;101248.25;5052481;28;20032;-71
2022/03/26 02:59:31;;;;;;;68.30;29.77;;;;;;;4.77;73.50;101253.47;5051984;28;20739;-71
2022/03/26 03:01:57;;;;;;;60.50;28.65;;;;;;;4.69;73.18;101250.22;5053004;28;20072;-71
2022/03/26 03:04:22;;;;;;;74.22;29.90;;;;;;;4.64;73.69;101252.09;5040464;28;20051;-72
2022/03/26 03:06:48;;;;;;;63.25;29.50;;;;;;;4.62;74.01;101249.53;5063866;28;20099;-69
2022/03/26 03:09:13;;;;;;;63.20;30.20;;;;;;;4.61;73.77;101240.03;5052502;28;20029;-70
2022/03/26 03:11:39;;;;;;;69.57;30.10;;;;;;;4.59;74.14;101249.59;5052530;28;20048;-71
2022/03/26 03:14:05;;;;;;;66.03;30.52;;;;;;;4.59;74.10;101245.25;5055594;28;20040;-70
2022/03/26 03:16:31;;;;;;;59.53;29.13;;;;;;;4.56;74.01;101253.16;5053380;28;20414;-70
2022/03/26 03:18:57;;;;;;;58.60;29.30;;;;;;;4.52;74.20;101241.13;5069827;28;20047;-72
2022/03/26 03:21:22;;;;;;;59.53;30.58;;;;;;;4.52;74.54;101255.84;5059748;28;20652;-71
2022/03/26 03:23:48;;;;;;;69.07;29.88;;;;;;;4.45;74.31;101256.91;5051395;28;20037;-71
2022/03/26 03:26:15;;;;;;;67.78;30.08;;;;;;;4.37;74.98;101254.50;5052218;28;20037;-70
2022/03/26 03:28:41;;;;;;;66.18;29.90;;;;;;;4.33;74.81;101258.06;5056510;28;20075;-71
2022/03/26 03:31:06;;;;;;;66.68;29.08;;;;;;;4.27;75.35;101259.09;5044653;28;20048;-71
2022/03/26 03:33:31;;;;;;;57.95;27.02;;;;;;;4.23;74.96;101249.69;5051665;28;20029;-71
2022/03/26 03:35:57;;;;;;;59.38;27.98;;;;;;;4.28;74.95;101253.00;5033700;28;20044;-71
2022/03/26 03:38:24;;;;;;;58.75;27.05;;;;;;;4.29;75.14;101253.84;5017617;28;20030;-70
2022/03/26 03:40:49;;;;;;;67.28;28.85;;;;;;;4.30;74.46;101252.97;5043935;28;20594;-69
2022/03/26 03:43:14;;;;;;;63.67;27.77;;;;;;;4.27;74.46;101245.28;5051349;28;20108;-71
2022/03/26 03:45:40;;;;;;;60.28;28.13;;;;;;;4.29;74.65;101248.66;5050791;28;20036;-71
2022/03/26 03:48:05;;;;;;;67.97;28.05;;;;;;;4.31;74.77;101250.34;5050666;28;20047;-70
2022/03/26 03:50:31;;;;;;;54.63;26.73;;;;;;;4.32;74.81;101240.81;5051225;28;20029;-72
2022/03/26 03:52:56;;;;;;;56.13;26.65;;;;;;;4.30;74.48;101248.66;5051440;28;20051;-70
2022/03/26 03:55:22;;;;;;;55.20;26.08;;;;;;;4.24;74.54;101247.94;5050597;28;20048;-70
2022/03/26 03:57:47;;;;;;;62.40;28.40;;;;;;;4.20;75.09;101235.94;5051778;28;20052;-71
2022/03/26 04:00:15;;;;;;;64.05;27.52;;;;;;;4.20;75.30;101244.56;5050289;28;20655;-72
2022/03/26 04:02:41;;;;;;;59.40;27.83;;;;;;;4.19;75.25;101239.41;5049803;28;20039;-71
2022/03/26 04:05:10;;;;;;;51.42;26.08;;;;;;;4.18;75.02;101238.56;5050596;28;20600;-70
2022/03/26 04:07:37;;;;;;;60.53;28.52;;;;;;;4.16;75.77;101242.94;5050114;28;20052;-70
2022/03/26 04:10:07;;;;;;;61.63;26.60;;;;;;;4.17;75.49;101238.59;5050900;28;20021;-69
2022/03/26 04:12:38;;;;;;;69.28;28.75;;;;;;;4.12;75.50;101238.72;5050492;28;20033;-71
2022/03/26 04:15:05;;;;;;;73.80;28.88;;;;;;;4.07;76.09;101241.41;5049609;28;20037;-71
2022/03/26 04:17:32;;;;;;;65.93;29.02;;;;;;;3.99;76.14;101240.75;5050687;28;20033;-71
2022/03/26 04:20:02;;;;;;;67.00;30.52;;;;;;;3.98;76.38;101236.47;5050435;28;20025;-75
2022/03/26 04:22:27;;;;;;;81.53;33.92;;;;;;;3.99;76.16;101242.50;5049842;28;20099;-72
2022/03/26 04:24:53;;;;;;;69.47;32.42;;;;;;;3.98;76.22;101243.41;5047309;28;20435;-70
2022/03/26 04:27:18;;;;;;;73.30;33.70;;;;;;;3.96;76.58;101243.41;5033669;28;20051;-71
2022/03/26 04:29:43;;;;;;;77.82;33.10;;;;;;;3.90;76.80;101248.78;5049393;28;20063;-71
2022/03/26 04:32:10;;;;;;;69.18;33.55;;;;;;;3.84;76.62;101249.75;5050432;28;20049;-72
2022/03/26 04:34:36;;;;;;;67.55;30.58;;;;;;;3.80;76.91;101245.53;5050119;28;20021;-71
2022/03/26 04:37:02;;;;;;;63.95;30.27;;;;;;;3.83;77.29;101249.81;5051320;28;20029;-71
2022/03/26 04:39:28;;;;;;;65.22;30.30;;;;;;;3.84;77.37;101254.09;5050366;28;20036;-72
2022/03/26 04:41:53;;;;;;;68.30;31.20;;;;;;;3.84;76.95;101256.69;5050056;28;20398;-71
2022/03/26 04:44:18;;;;;;;71.15;29.98;;;;;;;3.84;76.91;101254.94;5031955;28;20036;-71
2022/03/26 04:46:44;;;;;;;67.28;30.02;;;;;;;3.85;76.93;101260.97;5050694;28;20036;-70
2022/03/26 04:49:09;;;;;;;61.33;30.70;;;;;;;3.80;76.84;101263.69;5050453;28;20032;-70
2022/03/26 04:51:34;;;;;;;63.15;28.00;;;;;;;3.82;77.05;101253.25;5050131;28;20061;-70
2022/03/26 04:54:00;;;;;;;61.95;26.70;;;;;;;3.80;76.60;101250.72;5049825;28;20455;-70
2022/03/26 04:56:25;;;;;;;61.35;29.35;;;;;;;3.79;76.86;101256.81;5049830;28;20049;-69
2022/03/26 04:58:51;;;;;;;70.05;28.70;;;;;;;3.78;76.82;101246.44;5048900;28;20449;-71
2022/03/26 05:01:18;;;;;;;63.22;27.35;;;;;;;3.80;76.59;101249.88;5032561;28;20021;-70
2022/03/26 05:03:44;;;;;;;69.10;28.17;;;;;;;3.81;76.59;101247.22;5049551;28;20079;-70
2022/03/26 05:06:09;;;;;;;70.55;28.65;;;;;;;3.81;76.53;101251.56;5050485;28;20076;-70
2022/03/26 05:08:34;;;;;;;60.08;27.17;;;;;;;3.75;76.41;101257.75;5049607;28;20033;-70
2022/03/26 05:11:00;;;;;;;67.95;28.48;;;;;;;3.71;76.69;101263.91;5050257;28;20096;-70
2022/03/26 05:13:26;;;;;;;69.95;28.25;;;;;;;3.67;76.67;101264.88;5049099;28;20164;-71
2022/03/26 05:15:51;;;;;;;63.25;26.65;;;;;;;3.56;76.81;101262.53;5050180;28;20115;-70
2022/03/26 05:18:17;;;;;;;60.95;26.42;;;;;;;3.56;76.97;101270.31;5050030;28;20041;-71
2022/03/26 05:20:43;;;;;;;61.38;29.17;;;;;;;3.62;77.30;101264.97;5049975;28;20067;-70
2022/03/26 05:23:09;;;;;;;70.80;28.02;;;;;;;3.63;76.95;101264.09;5049248;28;20045;-70
2022/03/26 05:25:34;;;;;;;65.10;29.90;;;;;;;3.66;76.97;101267.50;5049325;28;20033;-71
2022/03/26 05:27:59;;;;;;;68.25;30.52;;;;;;;3.67;76.93;101270.06;5049978;28;20100;-71
2022/03/26 05:30:25;;;;;;;67.93;28.80;;;;;;;3.67;77.03;101274.38;5048495;28;20036;-70
2022/03/26 05:32:51;;;;;;;65.18;30.02;;;;;;;3.69;76.77;101281.25;5031585;28;20037;-72
2022/03/26 05:35:18;;;;;;;61.55;27.85;;;;;;;3.67;76.94;101276.97;5049629;28;20499;-73
2022/03/26 05:37:47;;;;;;;66.78;28.85;;;;;;;3.74;76.71;101275.94;5050020;28;20577;-73
2022/03/26 05:40:17;;;;;;;64.07;27.73;;;;;;;3.75;76.60;101277.66;5048994;28;20246;-71
2022/03/26 05:42:44;;;;;;;62.13;27.85;;;;;;;3.80;76.08;101284.44;5048690;28;20037;-70
2022/03/26 05:45:10;;;;;;;69.43;27.70;;;;;;;3.82;75.93;101284.41;5048211;28;20111;-70
2022/03/26 05:47:37;;;;;;;59.60;26.08;;;;;;;3.84;76.08;101287.81;5047473;28;20448;-70
2022/03/26 05:50:05;;;;;;;74.05;28.15;;;;;;;3.87;75.72;101287.75;5048957;28;20051;-72
2022/03/26 05:52:30;;;;;;;64.93;27.27;;;;;;;3.91;75.62;101291.97;5034936;28;20390;-75
2022/03/26 05:54:56;;;;;;;62.72;25.95;;;;;;;3.92;75.29;101293.69;5072900;28;20017;-74
2022/03/26 05:57:21;;;;;;;53.33;26.70;;;;;;;3.94;75.46;101291.91;5072458;28;20033;-71
2022/03/26 05:59:46;;;;;;;66.45;26.02;;;;;;;3.96;75.36;101295.31;5057543;28;20033;-70
2022/03/26 06:02:13;;;;;;;56.15;25.60;;;;;;;3.99;75.12;101292.66;5050082;28;20124;-69
2022/03/26 06:04:42;;;;;;;63.78;27.33;;;;;;;4.03;74.95;101289.09;5049538;28;20563;-69
2022/03/26 06:07:08;;;;;;;71.03;28.80;;;;;;;4.06;75.17;101288.19;5048699;28;20100;-69
2022/03/26 06:09:34;;;;;;;55.35;25.98;;;;;;;4.11;75.20;101289.75;5028979;28;20592;-68
2022/03/26 06:11:59;;;;;;;60.13;26.90;;;;;;;4.17;74.85;101293.97;5048463;28;20131;-71
2022/03/26 06:14:25;;;;;;;55.65;26.50;;;;;;;4.20;75.00;101290.44;5049129;28;20116;-69
2022/03/26 06:16:51;;;;;;;59.72;25.50;;;;;;;4.22;74.66;101291.25;5048668;28;20029;-71
2022/03/26 06:19:16;;;;;;;65.07;27.55;;;;;;;4.26;74.76;101293.72;5049105;28;20055;-70
2022/03/26 06:21:42;;;;;;;68.35;28.65;;;;;;;4.32;74.95;101303.13;5048315;28;20061;-70
2022/03/26 06:24:08;;;;;;;79.25;29.75;;;;;;;4.38;75.09;101295.19;5046905;28;20034;-72
2022/03/26 06:26:36;;;;;;;60.97;28.15;;;;;;;4.43;74.58;101300.25;5029767;28;20040;-70
2022/03/26 06:29:01;;;;;;;67.25;27.55;;;;;;;4.49;74.79;101300.13;5031160;28;20040;-71
2022/03/26 06:31:26;;;;;;;66.05;27.20;;;;;;;4.55;74.54;101302.53;5076945;22;20040;-69
2022/03/26 06:33:52;;;;;;;50.80;23.85;;;;;;;5.02;78.43;101295.22;5050285;28;20036;-66
2022/03/26 06:36:18;;;;;;;66.22;26.30;;;;;;;5.36;74.92;101299.47;5068001;28;20028;-68
2022/03/26 06:38:44;;;;;;;59.85;25.30;;;;;;;5.44;73.70;101300.94;5050290;28;20033;-68
2022/03/26 06:41:10;;;;;;;58.92;26.30;;;;;;;5.62;71.56;101303.91;5057628;28;20037;-67
2022/03/26 06:43:37;;;;;;;54.90;24.80;;;;;;;5.52;71.51;101309.38;5047556;28;20054;-66
2022/03/26 06:46:02;;;;;;;58.92;25.75;;;;;;;5.49;71.50;101314.69;5048439;28;20176;-65
2022/03/26 06:48:27;;;;;;;59.80;26.10;;;;;;;5.47;71.54;101315.63;5046545;28;20158;-68
2022/03/26 06:50:53;;;;;;;58.50;28.67;;;;;;;5.46;71.62;101319.97;5047231;28;20067;-68
2022/03/26 06:53:20;;;;;;;57.35;25.55;;;;;;;5.51;71.47;101325.03;5046602;28;20037;-68
2022/03/26 06:55:45;;;;;;;55.33;27.27;;;;;;;5.52;71.46;101332.78;5048750;28;20048;-66
2022/03/26 06:58:10;;;;;;;58.05;25.98;;;;;;;5.55;71.56;101345.69;5048275;28;20407;-68
2022/03/26 07:00:36;;;;;;;53.50;24.92;;;;;;;5.62;71.53;101346.38;5047667;28;20168;-66
2022/03/26 07:03:02;;;;;;;64.55;28.10;;;;;;;5.71;71.73;101334.84;5047805;28;20120;-67
2022/03/26 07:05:27;;;;;;;55.28;26.23;;;;;;;5.88;71.38;101337.78;5047854;28;20029;-66
2022/03/26 07:07:52;;;;;;;60.78;27.30;;;;;;;6.04;71.07;101343.41;5047288;28;20033;-68
2022/03/26 07:10:18;;;;;;;59.08;28.42;;;;;;;6.19;71.14;101345.56;5048168;28;20029;-67
2022/03/26 07:12:43;;;;;;;61.17;27.77;;;;;;;6.36;71.48;101357.19;5046356;28;20052;-66
2022/03/26 07:15:09;;;;;;;65.82;27.00;;;;;;;6.52;70.73;101350.56;5043801;28;20056;-67
2022/03/26 07:17:37;;;;;;;66.43;28.85;;;;;;;6.67;70.32;101343.97;5039188;28;20061;-68
2022/03/26 07:20:03;;;;;;;62.78;28.13;;;;;;;6.83;69.93;101349.53;5045152;28;20088;-67
2022/03/26 07:22:28;;;;;;;63.97;28.42;;;;;;;6.95;69.22;101359.53;5053750;28;20020;-68
2022/03/26 07:24:53;;;;;;;62.67;29.65;;;;;;;7.01;68.85;101352.38;5047899;28;20028;-67
2022/03/26 07:27:18;;;;;;;62.03;28.83;;;;;;;7.13;68.64;101358.06;5047584;28;20044;-67
2022/03/26 07:29:46;;;;;;;56.97;27.10;;;;;;;7.21;69.00;101348.19;5042297;28;20041;-67
2022/03/26 07:32:11;;;;;;;68.32;27.05;;;;;;;7.31;69.06;101351.34;5047824;28;20052;-65
2022/03/26 07:34:36;;;;;;;58.55;27.98;;;;;;;7.43;68.16;101353.50;5029194;28;20017;-67
2022/03/26 07:37:02;;;;;;;64.75;27.83;;;;;;;7.54;68.42;101353.09;5045875;28;20088;-67
2022/03/26 07:39:27;;;;;;;64.28;28.83;;;;;;;7.65;67.96;101349.16;5031221;28;20087;-67
2022/03/26 07:41:53;;;;;;;63.22;27.85;;;;;;;7.74;67.76;101337.50;5055892;28;20033;-68
2022/03/26 07:44:19;;;;;;;59.08;28.20;;;;;;;7.80;67.38;101342.50;5046912;28;20049;-68
2022/03/26 07:46:44;;;;;;;60.45;28.15;;;;;;;7.86;67.29;101346.63;5051046;28;20029;-70
2022/03/26 07:49:10;;;;;;;63.03;26.30;;;;;;;7.94;67.29;101348.06;5051782;28;20029;-70
2022/03/26 07:51:35;;;;;;;57.92;26.73;;;;;;;8.03;67.40;101356.44;5047059;28;20128;-69
2022/03/26 07:54:00;;;;;;;63.45;27.98;;;;;;;8.05;67.30;101345.03;5050851;28;20125;-70
2022/03/26 07:56:26;;;;;;;56.63;27.33;;;;;;;8.14;66.75;101359.47;5050941;28;20036;-70
2022/03/26 07:58:51;;;;;;;67.47;28.67;;;;;;;8.18;66.97;101353.22;5047866;28;20068;-68
2022/03/26 08:01:16;;;;;;;60.42;27.80;;;;;;;8.24;66.79;101352.97;5049877;28;20029;-67
2022/03/26 08:03:42;;;;;;;62.88;26.63;;;;;;;8.34;66.53;101350.84;5032155;28;20033;-65
2022/03/26 08:06:07;;;;;;;60.42;28.10;;;;;;;8.44;66.89;101349.59;5050876;28;20053;-66
2022/03/26 08:08:33;;;;;;;74.07;28.27;;;;;;;8.52;66.38;101346.66;5050747;28;20996;-67
2022/03/26 08:10:58;;;;;;;62.95;28.17;;;;;;;8.61;65.68;101344.53;5033778;28;20546;-66
2022/03/26 08:13:24;;;;;;;56.67;27.55;;;;;;;8.69;65.27;101345.03;5032462;28;20033;-66
2022/03/26 08:15:49;;;;;;;68.57;29.60;;;;;;;8.78;65.51;101354.25;5051244;28;20021;-68
2022/03/26 08:18:16;;;;;;;64.95;27.08;;;;;;;8.87;65.06;101355.66;5050664;28;20033;-66
2022/03/26 08:20:42;;;;;;;67.07;28.17;;;;;;;8.95;65.05;101354.41;5050863;28;20549;-68
2022/03/26 08:23:07;;;;;;;69.70;28.77;;;;;;;9.04;64.80;101362.75;5046753;28;20037;-67
2022/03/26 08:28:18;;;;;;;65.45;27.90;;;;;;;9.23;64.65;101363.66;5051312;28;20035;-67
2022/03/26 08:30:43;;;;;;;72.30;28.10;;;;;;;9.33;63.97;101364.09;5050615;28;20036;-68
2022/03/26 08:33:08;;;;;;;72.65;30.58;;;;;;;9.47;63.78;101373.97;5032816;28;20052;-69
2022/03/26 08:35:39;;;;;;;70.18;30.60;;;;;;;9.53;64.17;101364.06;5050640;28;20048;-68
2022/03/26 08:38:04;;;;;;;65.75;28.50;;;;;;;9.57;63.75;101372.66;5050589;28;20036;-65
2022/03/26 08:40:30;;;;;;;72.78;29.60;;;;;;;9.66;63.67;101359.13;5056039;28;20481;-67
2022/03/26 08:42:58;;;;;;;65.45;28.30;;;;;;;9.79;62.25;101362.00;5050613;28;20116;-68
2022/03/26 08:45:24;;;;;;;68.32;28.23;;;;;;;9.88;62.24;101345.88;5050428;28;20033;-66
2022/03/26 08:47:49;;;;;;;61.67;28.52;;;;;;;10.00;62.54;101349.69;5031640;28;20033;-67
2022/03/26 08:50:14;;;;;;;70.80;30.38;;;;;;;10.11;62.41;101345.63;5049763;28;20048;-67
2022/03/26 08:52:40;;;;;;;63.63;28.48;;;;;;;10.18;62.05;101349.66;5047269;28;20049;-66
2022/03/26 08:55:06;;;;;;;64.13;27.95;;;;;;;10.34;60.74;101356.78;5049767;28;20100;-67
2022/03/26 08:57:32;;;;;;;64.80;29.02;;;;;;;10.41;60.96;101355.56;5049425;28;20111;-66
2022/03/26 08:59:57;;;;;;;71.65;26.10;;;;;;;10.51;60.70;101372.56;5027352;28;20443;-67
2022/03/26 09:02:22;;;;;;;67.50;26.75;;;;;;;10.64;60.56;101360.56;5049580;28;20052;-66
2022/03/26 09:04:48;;;;;;;64.60;28.50;;;;;;;10.71;59.97;101358.44;5032279;28;20037;-69
2022/03/26 09:07:13;;;;;;;61.53;25.83;;;;;;;10.78;59.97;101357.22;5049336;28;20146;-68
2022/03/26 09:09:39;;;;;;;62.13;26.52;;;;;;;10.88;59.58;101357.59;5049508;28;20025;-70
2022/03/26 09:12:04;;;;;;;63.47;26.50;;;;;;;11.00;59.62;101359.59;5049119;28;20069;-70
2022/03/26 09:14:30;;;;;;;59.72;26.10;;;;;;;11.10;59.66;101357.34;5050003;28;20223;-69
2022/03/26 09:16:55;;;;;;;58.67;25.38;;;;;;;11.11;60.08;101354.63;5050173;28;20525;-71
2022/03/26 09:19:21;;;;;;;60.13;25.52;;;;;;;11.22;60.11;101356.72;5049911;28;20107;-67
2022/03/26 09:21:46;;;;;;;57.83;26.15;;;;;;;11.39;60.67;101348.78;5050301;28;20060;-65
2022/03/26 09:24:14;;;;;;;54.13;23.38;;;;;;;11.44;60.34;101352.94;5031762;28;20618;-67
2022/03/26 09:26:39;;;;;;;57.65;24.67;;;;;;;11.47;59.92;101356.25;5049721;28;20029;-67
2022/03/26 09:29:05;;;;;;;52.90;23.63;;;;;;;11.54;60.25;101343.66;5048701;28;20033;-67
2022/03/26 09:31:30;;;;;;;51.83;23.75;;;;;;;11.76;60.05;101348.59;5048751;28;20048;-66
2022/03/26 09:33:55;;;;;;;59.05;24.38;;;;;;;11.75;59.91;101347.72;5049344;28;20035;-66
2022/03/26 09:36:20;;;;;;;49.55;23.10;;;;;;;11.81;59.75;101346.56;5048622;28;20037;-65
2022/03/26 09:38:46;;;;;;;56.38;22.90;;;;;;;11.81;59.91;101331.63;5023916;28;20605;-66
2022/03/26 09:41:11;;;;;;;55.83;23.77;;;;;;;11.91;59.58;101331.16;5048545;28;20563;-66
2022/03/26 09:43:37;;;;;;;55.30;23.85;;;;;;;11.88;59.78;101333.97;5049098;28;20395;-66
2022/03/26 09:46:03;;;;;;;49.53;24.77;;;;;;;11.95;59.80;101330.06;5049059;28;20024;-69
2022/03/26 09:48:28;;;;;;;48.30;21.88;;;;;;;12.03;59.72;101327.84;5048905;28;20167;-66
2022/03/26 09:50:56;;;;;;;51.50;23.50;;;;;;;12.14;59.90;101325.44;5031341;28;20434;-67
2022/03/26 09:53:21;;;;;;;45.20;21.45;;;;;;;12.25;59.32;101336.19;5048572;28;20045;-65
2022/03/26 09:55:47;;;;;;;47.05;21.10;;;;;;;12.29;59.32;101323.72;5048804;28;20059;-67
2022/03/26 09:58:12;;;;;;;44.40;20.88;;;;;;;12.44;59.17;101324.63;5049861;28;20033;-69
2022/03/26 10:00:38;;;;;;;53.72;22.98;;;;;;;12.48;58.80;101316.47;5047425;28;20033;-68
2022/03/26 10:03:03;;;;;;;49.67;21.30;;;;;;;12.64;58.51;101313.75;5048722;28;20029;-66
2022/03/26 10:05:34;;;;;;;44.35;21.08;;;;;;;12.77;58.01;101313.91;5030539;28;20032;-66
2022/03/26 10:08:23;;;;;;;49.50;21.25;;;;;;;12.92;57.84;101322.66;5047069;28;20128;-64
2022/03/26 10:10:50;;;;;;;43.85;20.77;;;;;;;12.99;57.85;101314.31;5048525;28;20044;-68
2022/03/26 10:13:34;;;;;;;40.58;20.17;;;;;;;13.03;57.71;101304.44;5049187;28;20033;-69
2022/03/26 10:16:02;;;;;;;44.00;21.80;;;;;;;13.20;57.54;101299.00;5045636;28;20090;-67
2022/03/26 10:18:36;;;;;;;54.75;20.70;;;;;;;13.30;56.72;101302.75;5048859;28;20029;-68
2022/03/26 10:21:02;;;;;;;46.55;21.77;;;;;;;13.40;56.51;101300.41;5030777;28;20037;-67
2022/03/26 10:23:28;;;;;;;36.33;20.05;;;;;;;13.42;56.34;101295.03;5044581;28;21358;-66
2022/03/26 10:26:07;;;;;;;43.47;20.15;;;;;;;13.41;56.17;101288.91;5048910;28;20063;-68
2022/03/26 10:28:32;;;;;;;43.22;21.05;;;;;;;13.44;55.75;101288.72;5046700;28;20021;-71
2022/03/26 10:34:10;;;;;;;40.33;18.05;;;;;;;13.83;54.92;101283.63;5044810;28;20044;-65
2022/03/26 10:36:37;;;;;;;43.05;18.63;;;;;;;13.96;54.90;101277.47;5046018;28;20158;-65
2022/03/26 10:39:03;;;;;;;40.78;18.67;;;;;;;13.99;54.43;101284.34;5047292;28;20060;-68
2022/03/26 10:41:33;;;;;;;30.48;15.45;;;;;;;14.08;53.86;101283.75;5052337;28;20029;-66
2022/03/26 10:44:13;;;;;;;35.45;17.35;;;;;;;14.13;54.42;101276.38;5047600;28;20123;-67
2022/03/26 10:46:51;;;;;;;34.40;16.52;;;;;;;14.28;53.96;101275.38;5041898;28;20609;-66
2022/03/26 10:49:26;;;;;;;26.45;14.65;;;;;;;14.29;53.46;101271.78;5048702;28;20017;-67
2022/03/26 10:51:53;;;;;;;29.13;14.15;;;;;;;14.34;52.11;101267.97;5048340;28;20044;-64
2022/03/26 10:54:19;;;;;;;20.15;10.38;;;;;;;14.52;51.60;101269.41;5047262;28;20041;-67
2022/03/26 10:56:45;;;;;;;27.83;13.50;;;;;;;14.60;52.18;101277.66;5048111;28;20064;-67
2022/03/26 10:59:10;;;;;;;21.27;11.30;;;;;;;14.54;51.96;101269.31;5047334;28;20059;-66
2022/03/26 11:01:35;;;;;;;23.90;9.88;;;;;;;14.65;51.76;101265.00;5029598;28;20071;-67
2022/03/26 11:04:02;;;;;;;19.60;10.15;;;;;;;14.75;50.79;101273.97;5047774;28;20068;-66
2022/03/26 11:06:28;;;;;;;27.17;10.18;;;;;;;14.79;50.58;101273.75;5030582;28;20041;-67
2022/03/26 11:09:01;;;;;;;20.65;9.77;;;;;;;14.87;50.84;101266.13;5047014;28;20418;-66
2022/03/26 11:11:28;;;;;;;22.27;9.43;;;;;;;14.93;50.58;101261.28;5049850;28;20037;-67
2022/03/26 11:13:58;;;;;;;17.35;8.38;;;;;;;15.03;49.88;101263.28;5049598;28;20075;-65
2022/03/26 11:16:54;;;;;;;21.95;8.88;;;;;;;15.25;49.43;101268.75;5043862;28;20056;-65